createdAt,value
2023-05-09T00:01:31.575Z,21.38
2023-05-09T00:03:59.280Z,21.38
2023-05-09T00:06:27.556Z,21.39
2023-05-09T00:08:55.800Z,21.38
2023-05-09T00:11:22.404Z,21.38
2023-05-09T00:13:50.576Z,21.30
2023-05-09T00:16:18.642Z,21.37
2023-05-09T00:18:45.239Z,21.36
2023-05-09T00:21:11.918Z,21.35
2023-05-09T00:23:38.835Z,21.25
2023-05-09T00:26:06.264Z,21.32
2023-05-09T00:28:33.089Z,21.35
2023-05-09T00:30:59.776Z,21.35
2023-05-09T00:33:26.878Z,21.28
2023-05-09T00:35:54.648Z,21.14
2023-05-09T00:38:22.942Z,21.34
2023-05-09T00:40:49.782Z,21.17
2023-05-09T00:43:16.776Z,21.34
2023-05-09T00:45:46.886Z,21.33
2023-05-09T00:48:15.241Z,21.33
2023-05-09T00:50:42.192Z,21.32
2023-05-09T00:53:09.492Z,21.32
2023-05-09T00:55:36.534Z,21.25
2023-05-09T00:58:03.860Z,21.32
2023-05-09T01:00:30.406Z,21.31
2023-05-09T01:02:57.216Z,21.31
2023-05-09T01:05:34.532Z,21.32
2023-05-09T01:08:10.503Z,21.24
2023-05-09T01:10:48.901Z,21.30
2023-05-09T01:13:32.112Z,21.30
2023-05-09T01:16:08.684Z,21.21
2023-05-09T01:18:44.800Z,21.29
2023-05-09T01:21:15.900Z,21.29
2023-05-09T01:23:43.917Z,21.28
2023-05-09T01:26:26.122Z,21.27
2023-05-09T01:29:11.770Z,21.23
2023-05-09T01:31:41.194Z,21.26
2023-05-09T01:34:09.826Z,21.24
2023-05-09T01:36:38.036Z,21.23
2023-05-09T01:39:05.936Z,21.24
2023-05-09T01:41:36.389Z,21.09
2023-05-09T01:44:07.715Z,21.19
2023-05-09T01:46:35.342Z,21.23
2023-05-09T01:49:03.525Z,21.22
2023-05-09T01:51:32.639Z,21.20
2023-05-09T01:54:01.232Z,21.21
2023-05-09T01:56:28.082Z,21.16
2023-05-09T01:58:56.464Z,21.22
2023-05-09T02:01:24.375Z,21.22
2023-05-09T02:03:54.711Z,21.22
2023-05-09T02:06:24.354Z,21.16
2023-05-09T02:08:51.450Z,21.22
2023-05-09T02:11:18.551Z,21.20
2023-05-09T02:13:45.234Z,21.20
2023-05-09T02:16:12.194Z,21.21
2023-05-09T02:18:38.854Z,21.20
2023-05-09T02:21:06.434Z,21.15
2023-05-09T02:23:33.016Z,21.21
2023-05-09T02:25:59.827Z,21.20
2023-05-09T02:28:28.324Z,21.19
2023-05-09T02:30:58.574Z,21.18
2023-05-09T02:33:27.174Z,21.14
2023-05-09T02:35:55.313Z,21.18
2023-05-09T02:38:22.277Z,21.13
2023-05-09T02:40:52.417Z,21.07
2023-05-09T02:43:19.396Z,21.19
2023-05-09T02:45:45.966Z,21.18
2023-05-09T02:48:12.569Z,21.15
2023-05-09T02:50:41.905Z,21.16
2023-05-09T02:53:08.698Z,21.16
2023-05-09T02:55:35.430Z,21.13
2023-05-09T02:58:12.775Z,21.15
2023-05-09T03:00:42.587Z,21.15
2023-05-09T03:03:09.651Z,21.14
2023-05-09T03:05:37.012Z,21.14
2023-05-09T03:08:03.678Z,21.14
2023-05-09T03:10:30.611Z,21.14
2023-05-09T03:12:57.415Z,21.05
2023-05-09T03:15:24.170Z,21.06
2023-05-09T03:17:51.580Z,21.12
2023-05-09T03:20:18.884Z,21.13
2023-05-09T03:22:45.462Z,21.12
2023-05-09T03:25:12.637Z,21.11
2023-05-09T03:27:39.433Z,21.10
2023-05-09T03:30:09.953Z,21.11
2023-05-09T03:32:36.865Z,21.11
2023-05-09T03:35:04.061Z,21.11
2023-05-09T03:37:32.314Z,21.10
2023-05-09T03:39:58.897Z,21.05
2023-05-09T03:42:26.553Z,21.09
2023-05-09T03:44:59.793Z,21.10
2023-05-09T03:47:26.493Z,21.09
2023-05-09T03:49:53.650Z,21.09
2023-05-09T03:52:22.745Z,21.02
2023-05-09T03:54:49.419Z,21.09
2023-05-09T03:57:17.610Z,21.09
2023-05-09T03:59:45.737Z,21.08
2023-05-09T04:02:13.917Z,21.09
2023-05-09T04:04:40.680Z,21.06
2023-05-09T04:07:08.859Z,21.08
2023-05-09T04:09:35.586Z,21.04
2023-05-09T04:12:02.135Z,21.11
2023-05-09T04:14:28.661Z,21.10
2023-05-09T04:16:55.355Z,21.13
2023-05-09T04:19:21.903Z,21.13
2023-05-09T04:21:48.747Z,21.15
2023-05-09T04:24:15.265Z,21.15
2023-05-09T04:26:44.636Z,21.16
2023-05-09T04:29:15.127Z,21.16
2023-05-09T04:31:46.834Z,21.17
2023-05-09T04:34:13.857Z,21.18
2023-05-09T04:36:40.599Z,21.19
2023-05-09T04:39:08.314Z,21.20
2023-05-09T04:41:36.190Z,21.15
2023-05-09T04:44:03.299Z,21.11
2023-05-09T04:46:29.883Z,21.17
2023-05-09T04:48:57.259Z,21.21
2023-05-09T04:51:23.799Z,21.24
2023-05-09T04:53:51.631Z,21.19
2023-05-09T04:56:21.665Z,21.12
2023-05-09T04:58:48.986Z,21.19
2023-05-09T05:01:16.651Z,21.17
2023-05-09T05:03:44.299Z,21.26
2023-05-09T05:06:11.059Z,21.29
2023-05-09T05:08:40.336Z,21.13
2023-05-09T05:11:06.949Z,21.28
2023-05-09T05:13:34.096Z,21.30
2023-05-09T05:16:01.559Z,21.25
2023-05-09T05:18:28.163Z,21.30
2023-05-09T05:20:54.708Z,21.33
2023-05-09T05:23:22.357Z,21.30
2023-05-09T05:25:52.758Z,21.33
2023-05-09T05:28:19.684Z,21.35
2023-05-09T05:30:47.018Z,21.35
2023-05-09T05:33:13.984Z,21.37
2023-05-09T05:35:40.668Z,21.37
2023-05-09T05:38:07.249Z,21.37
2023-05-09T05:40:34.372Z,21.38
2023-05-09T05:43:03.876Z,21.39
2023-05-09T05:45:32.535Z,21.38
2023-05-09T05:48:05.388Z,21.41
2023-05-09T05:50:32.474Z,21.29
2023-05-09T05:52:59.529Z,21.44
2023-05-09T05:55:26.285Z,21.44
2023-05-09T05:57:52.980Z,21.46
2023-05-09T06:00:20.607Z,21.47
2023-05-09T06:02:53.326Z,21.47
2023-05-09T06:05:25.262Z,21.45
2023-05-09T06:07:52.325Z,21.48
2023-05-09T06:10:18.879Z,21.49
2023-05-09T06:12:45.624Z,21.49
2023-05-09T06:15:12.613Z,21.48
2023-05-09T06:17:43.565Z,21.51
2023-05-09T06:20:10.616Z,21.51
2023-05-09T06:22:37.139Z,21.37
2023-05-09T06:25:03.972Z,21.53
2023-05-09T06:27:30.853Z,21.47
2023-05-09T06:29:57.482Z,21.49
2023-05-09T06:32:25.059Z,21.54
2023-05-09T06:34:52.627Z,21.55
2023-05-09T06:37:19.240Z,21.54
2023-05-09T06:39:45.787Z,21.53
2023-05-09T06:42:12.375Z,21.57
2023-05-09T06:44:39.604Z,21.45
2023-05-09T06:47:06.393Z,21.57
2023-05-09T06:49:33.753Z,21.60
2023-05-09T06:52:00.392Z,21.59
2023-05-09T06:54:27.238Z,21.62
2023-05-09T06:56:53.900Z,21.64
2023-05-09T06:59:20.652Z,21.65
2023-05-09T07:01:47.200Z,21.67
2023-05-09T07:04:16.997Z,21.71
2023-05-09T07:06:43.483Z,21.75
2023-05-09T07:09:10.081Z,21.77
2023-05-09T07:11:37.405Z,21.80
2023-05-09T07:14:04.193Z,21.71
2023-05-09T07:16:30.881Z,21.87
2023-05-09T07:18:57.395Z,21.88
2023-05-09T07:21:24.623Z,21.91
2023-05-09T07:23:51.223Z,21.94
2023-05-09T07:26:17.778Z,21.97
2023-05-09T07:28:44.298Z,22.00
2023-05-09T07:31:10.979Z,22.02
2023-05-09T07:33:37.537Z,21.97
2023-05-09T07:36:04.193Z,22.08
2023-05-09T07:38:30.698Z,22.11
2023-05-09T07:40:57.237Z,22.13
2023-05-09T07:43:23.718Z,22.15
2023-05-09T07:45:50.373Z,22.18
2023-05-09T07:48:16.870Z,22.20
2023-05-09T07:50:43.470Z,22.21
2023-05-09T07:53:10.404Z,22.23
2023-05-09T07:55:36.963Z,22.25
2023-05-09T07:58:03.533Z,22.28
2023-05-09T08:00:30.229Z,22.31
2023-05-09T08:02:59.674Z,22.13
2023-05-09T08:05:26.483Z,22.36
2023-05-09T08:07:53.047Z,22.37
2023-05-09T08:10:19.603Z,22.39
2023-05-09T08:12:46.117Z,22.41
2023-05-09T08:15:13.052Z,22.43
2023-05-09T08:17:40.130Z,22.46
2023-05-09T08:20:08.325Z,22.48
2023-05-09T08:22:34.989Z,22.50
2023-05-09T08:25:01.974Z,22.47
2023-05-09T08:27:28.533Z,22.55
2023-05-09T08:29:55.184Z,22.55
2023-05-09T08:32:21.678Z,22.59
2023-05-09T08:34:51.576Z,22.62
2023-05-09T08:37:18.162Z,22.55
2023-05-09T08:39:44.675Z,22.65
2023-05-09T08:42:15.781Z,22.68
2023-05-09T08:44:42.410Z,22.71
2023-05-09T08:47:09.325Z,22.72
2023-05-09T08:49:36.301Z,22.42
2023-05-09T08:52:03.436Z,22.75
2023-05-09T08:54:30.320Z,22.67
2023-05-09T08:56:57.800Z,22.67
2023-05-09T08:59:24.900Z,22.82
2023-05-09T09:01:53.409Z,22.83
2023-05-09T09:04:20.199Z,22.85
2023-05-09T09:06:46.883Z,22.87
2023-05-09T09:09:14.671Z,22.76
2023-05-09T09:11:42.682Z,22.90
2023-05-09T09:14:22.825Z,22.91
2023-05-09T09:16:51.116Z,22.88
2023-05-09T09:19:20.229Z,22.96
2023-05-09T09:21:49.775Z,22.63
2023-05-09T09:24:22.229Z,22.97
2023-05-09T09:26:51.033Z,23.00
2023-05-09T09:29:18.768Z,22.94
2023-05-09T09:31:46.979Z,23.03
2023-05-09T09:34:22.375Z,23.04
2023-05-09T09:36:50.391Z,23.05
2023-05-09T09:39:17.016Z,23.06
2023-05-09T09:41:44.848Z,23.08
2023-05-09T09:44:12.641Z,23.08
2023-05-09T09:46:53.247Z,23.00
2023-05-09T09:49:22.312Z,23.08
2023-05-09T09:51:56.748Z,23.09
2023-05-09T09:54:26.756Z,23.08
2023-05-09T09:56:56.435Z,23.08
2023-05-09T09:59:27.823Z,23.12
2023-05-09T10:01:55.523Z,23.14
2023-05-09T10:04:25.272Z,23.13
2023-05-09T10:06:56.858Z,23.14
2023-05-09T10:09:25.110Z,23.06
2023-05-09T10:11:53.648Z,23.16
2023-05-09T10:14:23.316Z,23.17
2023-05-09T10:16:57.329Z,23.17
2023-05-09T10:19:27.181Z,23.12
2023-05-09T10:21:58.742Z,23.22
2023-05-09T10:24:37.665Z,23.24
2023-05-09T10:27:08.697Z,23.18
2023-05-09T10:29:39.394Z,23.27
2023-05-09T10:32:14.042Z,23.28
2023-05-09T10:34:44.484Z,23.30
2023-05-09T10:37:12.580Z,23.32
2023-05-09T10:39:39.514Z,23.36
2023-05-09T10:42:07.577Z,23.37
2023-05-09T10:44:35.041Z,23.38
2023-05-09T10:51:55.329Z,23.45
2023-05-09T10:54:31.050Z,23.43
2023-05-09T10:56:57.990Z,23.45
2023-05-09T10:59:46.525Z,23.49
2023-05-09T11:02:15.619Z,23.50
2023-05-09T11:04:42.259Z,23.50
2023-05-09T11:07:26.196Z,23.51
2023-05-09T11:10:06.832Z,23.51
2023-05-09T11:12:34.093Z,23.51
2023-05-09T11:15:08.039Z,23.53
2023-05-09T11:17:38.521Z,23.55
2023-05-09T11:20:06.480Z,23.49
2023-05-09T11:22:44.979Z,23.55
2023-05-09T11:25:13.784Z,23.61
2023-05-09T11:27:48.640Z,23.62
2023-05-09T11:30:20.116Z,23.64
2023-05-09T11:32:51.399Z,23.67
2023-05-09T11:37:49.537Z,23.70
2023-05-09T11:40:19.147Z,23.70
2023-05-09T11:42:56.191Z,23.72
2023-05-09T11:45:28.199Z,23.73
2023-05-09T11:47:55.064Z,23.74
2023-05-09T11:50:21.685Z,23.75
2023-05-09T11:52:51.588Z,23.68
2023-05-09T11:55:20.329Z,23.75
2023-05-09T11:57:52.262Z,23.76
2023-05-09T12:00:24.007Z,23.77
2023-05-09T12:02:51.799Z,23.79
2023-05-09T12:05:22.890Z,23.81
2023-05-09T12:07:50.056Z,23.82
2023-05-09T12:10:20.476Z,23.84
2023-05-09T12:12:52.801Z,23.83
2023-05-09T12:15:21.461Z,23.86
2023-05-09T12:18:01.356Z,23.38
2023-05-09T12:20:28.656Z,23.88
2023-05-09T12:22:55.839Z,23.90
2023-05-09T12:25:22.698Z,23.85
2023-05-09T12:27:49.220Z,23.92
2023-05-09T12:30:16.329Z,23.82
2023-05-09T12:32:43.633Z,23.88
2023-05-09T12:35:12.073Z,23.93
2023-05-09T12:37:39.168Z,23.95
2023-05-09T12:40:12.455Z,23.95
2023-05-09T12:42:40.012Z,23.89
2023-05-09T12:45:11.190Z,23.98
2023-05-09T12:47:39.049Z,23.99
2023-05-09T12:50:06.973Z,23.89
2023-05-09T12:52:35.359Z,23.95
2023-05-09T12:55:15.216Z,23.72
2023-05-09T12:57:43.970Z,23.83
2023-05-09T13:00:12.070Z,23.75
2023-05-09T13:02:42.345Z,23.70
2023-05-09T13:05:16.012Z,23.62
2023-05-09T13:07:47.736Z,23.49
2023-05-09T13:10:15.344Z,23.37
2023-05-09T13:12:48.265Z,23.45
2023-05-09T13:15:22.514Z,23.43
2023-05-09T13:17:51.081Z,23.39
2023-05-09T13:20:18.838Z,23.56
2023-05-09T13:22:46.332Z,23.61
2023-05-09T13:25:13.567Z,23.65
2023-05-09T13:27:40.308Z,23.68
2023-05-09T13:30:07.774Z,23.67
2023-05-09T13:32:35.110Z,23.66
2023-05-09T13:35:01.836Z,23.78
2023-05-09T13:37:28.581Z,23.80
2023-05-09T13:39:55.504Z,23.75
2023-05-09T13:42:22.107Z,23.86
2023-05-09T13:44:48.751Z,23.87
2023-05-09T13:47:15.655Z,23.87
2023-05-09T13:49:42.121Z,23.87
2023-05-09T13:52:08.988Z,23.84
2023-05-09T13:54:35.680Z,23.88
2023-05-09T13:57:05.922Z,23.88
2023-05-09T13:59:34.697Z,23.88
2023-05-09T14:02:01.693Z,23.92
2023-05-09T14:04:29.709Z,23.94
2023-05-09T14:06:56.356Z,23.92
2023-05-09T14:09:23.217Z,23.98
2023-05-09T14:11:51.527Z,23.98
2023-05-09T14:14:21.924Z,24.02
2023-05-09T14:16:49.310Z,23.94
2023-05-09T14:19:16.886Z,23.94
2023-05-09T14:21:44.719Z,23.90
2023-05-09T14:24:14.340Z,24.01
2023-05-09T14:26:42.515Z,24.09
2023-05-09T14:29:09.301Z,23.92
2023-05-09T14:31:36.062Z,24.11
2023-05-09T14:34:06.166Z,24.14
2023-05-09T14:36:33.077Z,24.14
2023-05-09T14:38:59.613Z,24.15
2023-05-09T14:41:26.773Z,24.15
2023-05-09T14:43:53.426Z,24.16
2023-05-09T14:46:20.208Z,24.11
2023-05-09T14:48:46.909Z,24.19
2023-05-09T14:51:14.200Z,24.20
2023-05-09T14:53:44.060Z,24.23
2023-05-09T14:56:13.382Z,24.25
2023-05-09T14:58:39.946Z,24.26
2023-05-09T15:01:06.648Z,24.27
2023-05-09T15:03:33.190Z,24.27
2023-05-09T15:05:59.824Z,24.28
2023-05-09T15:08:27.022Z,24.30
2023-05-09T15:10:56.402Z,24.28
2023-05-09T15:13:23.415Z,24.31
2023-05-09T15:15:49.962Z,24.31
2023-05-09T15:18:18.332Z,24.30
2023-05-09T15:20:44.946Z,24.32
2023-05-09T15:23:13.108Z,24.29
2023-05-09T15:25:42.984Z,24.31
2023-05-09T15:28:09.473Z,24.33
2023-05-09T15:30:38.306Z,24.33
2023-05-09T15:33:05.297Z,24.32
2023-05-09T15:35:31.900Z,24.33
2023-05-09T15:37:58.721Z,24.33
2023-05-09T15:40:25.608Z,24.34
2023-05-09T15:42:52.226Z,24.34
2023-05-09T15:45:18.807Z,24.26
2023-05-09T15:47:45.532Z,24.34
2023-05-09T15:50:12.881Z,24.31
2023-05-09T15:52:39.727Z,24.33
2023-05-09T15:55:07.167Z,24.34
2023-05-09T15:57:35.162Z,24.34
2023-05-09T16:00:01.732Z,24.13
2023-05-09T16:02:39.058Z,24.33
2023-05-09T16:05:06.209Z,24.32
2023-05-09T16:07:34.665Z,24.33
2023-05-09T16:10:02.193Z,24.33
2023-05-09T16:12:28.800Z,24.33
2023-05-09T16:14:55.441Z,24.33
2023-05-09T16:17:21.936Z,24.32
2023-05-09T16:19:48.735Z,24.31
2023-05-09T16:22:15.220Z,24.30
2023-05-09T16:24:41.957Z,24.29
2023-05-09T16:27:08.532Z,24.30
2023-05-09T16:29:35.114Z,24.28
2023-05-09T16:32:04.127Z,24.26
2023-05-09T16:34:30.797Z,24.27
2023-05-09T16:36:57.379Z,24.26
2023-05-09T16:39:23.995Z,24.24
2023-05-09T16:41:50.524Z,24.25
2023-05-09T16:44:17.257Z,24.10
2023-05-09T16:46:43.785Z,24.24
2023-05-09T16:49:11.089Z,24.13
2023-05-09T16:51:37.673Z,24.17
2023-05-09T16:54:04.261Z,24.21
2023-05-09T16:56:30.859Z,24.21
2023-05-09T16:58:57.397Z,24.11
2023-05-09T17:01:23.946Z,24.20
2023-05-09T17:03:51.143Z,24.14
2023-05-09T17:06:18.455Z,24.19
2023-05-09T17:08:46.155Z,24.18
2023-05-09T17:11:15.488Z,24.14
2023-05-09T17:13:44.734Z,24.16
2023-05-09T17:16:11.276Z,24.16
2023-05-09T17:18:38.490Z,24.09
2023-05-09T17:21:05.440Z,24.14
2023-05-09T17:23:32.434Z,24.10
2023-05-09T17:25:59.134Z,24.13
2023-05-09T17:28:25.696Z,24.11
2023-05-09T17:30:52.491Z,24.06
2023-05-09T17:33:19.337Z,23.94
2023-05-09T17:35:49.413Z,24.02
2023-05-09T17:38:16.145Z,24.05
2023-05-09T17:40:43.369Z,23.93
2023-05-09T17:43:10.577Z,23.94
2023-05-09T17:45:38.009Z,23.95
2023-05-09T17:48:04.859Z,24.00
2023-05-09T17:50:32.942Z,23.91
2023-05-09T17:52:59.547Z,23.96
2023-05-09T17:55:26.191Z,23.94
2023-05-09T17:57:52.873Z,23.87
2023-05-09T18:00:19.708Z,23.79
2023-05-09T18:02:48.103Z,23.90
2023-05-09T18:05:16.503Z,23.89
2023-05-09T18:07:43.740Z,23.83
2023-05-09T18:10:10.868Z,23.86
2023-05-09T18:12:37.567Z,23.85
2023-05-09T18:15:05.937Z,23.62
2023-05-09T18:17:37.840Z,23.57
2023-05-09T18:22:19.360Z,23.79
2023-05-09T18:24:46.193Z,23.60
2023-05-09T18:27:12.814Z,23.72
2023-05-09T18:29:39.628Z,23.75
2023-05-09T18:32:06.897Z,23.73
2023-05-09T18:34:33.841Z,23.57
2023-05-09T18:37:00.352Z,23.69
2023-05-09T18:39:27.545Z,23.64
2023-05-09T18:41:54.292Z,23.68
2023-05-09T18:44:20.878Z,23.65
2023-05-09T18:46:47.429Z,23.65
2023-05-09T18:49:18.541Z,23.63
2023-05-09T18:51:45.327Z,23.62
2023-05-09T18:54:14.757Z,23.59
2023-05-09T18:56:43.992Z,23.59
2023-05-09T18:59:16.466Z,23.58
2023-05-09T19:01:46.024Z,23.54
2023-05-09T19:04:14.037Z,23.53
2023-05-09T19:06:42.178Z,23.55
2023-05-09T19:09:08.839Z,23.39
2023-05-09T19:11:35.875Z,23.53
2023-05-09T19:14:05.270Z,23.44
2023-05-09T19:16:32.197Z,23.52
2023-05-09T19:19:10.285Z,23.39
2023-05-09T19:21:41.707Z,23.47
2023-05-09T19:24:09.329Z,23.29
2023-05-09T19:26:35.953Z,23.26
2023-05-09T19:29:10.086Z,23.47
2023-05-09T19:31:37.463Z,23.47
2023-05-09T19:34:04.083Z,23.46
2023-05-09T19:36:34.108Z,23.45
2023-05-09T19:39:00.680Z,23.42
2023-05-09T19:41:27.296Z,23.42
2023-05-09T19:43:58.001Z,23.44
2023-05-09T19:46:26.767Z,23.30
2023-05-09T19:48:58.295Z,23.45
2023-05-09T19:51:25.126Z,23.15
2023-05-09T19:53:59.293Z,23.42
2023-05-09T19:56:26.043Z,23.40
2023-05-09T19:58:54.891Z,23.39
2023-05-09T20:01:26.126Z,23.18
2023-05-09T20:03:53.696Z,23.35
2023-05-09T20:06:20.843Z,23.21
2023-05-09T20:08:47.653Z,23.14
2023-05-09T20:11:15.181Z,23.31
2023-05-09T20:13:43.095Z,23.24
2023-05-09T20:16:12.897Z,23.20
2023-05-09T20:18:39.667Z,23.24
2023-05-09T20:21:09.711Z,23.27
2023-05-09T20:23:37.061Z,23.26
2023-05-09T20:26:03.864Z,23.05
2023-05-09T20:28:31.933Z,23.24
2023-05-09T20:30:58.495Z,23.24
2023-05-09T20:33:25.049Z,23.23
2023-05-09T20:35:51.536Z,23.10
2023-05-09T20:38:18.106Z,23.22
2023-05-09T20:40:45.914Z,23.23
2023-05-09T20:43:12.547Z,22.99
2023-05-09T20:45:39.194Z,23.22
2023-05-09T20:48:06.644Z,23.24
2023-05-09T20:50:35.725Z,23.17
2023-05-09T20:53:04.501Z,23.25
2023-05-09T20:55:30.994Z,23.26
2023-05-09T20:57:57.916Z,23.05
2023-05-09T21:00:24.612Z,23.28
2023-05-09T21:02:51.271Z,23.11
2023-05-09T21:05:17.788Z,23.28
2023-05-09T21:07:44.404Z,23.29
2023-05-09T21:10:11.351Z,23.28
2023-05-09T21:12:37.965Z,23.16
2023-05-09T21:15:05.208Z,23.22
2023-05-09T21:17:32.065Z,23.28
2023-05-09T21:19:58.973Z,23.24
2023-05-09T21:22:25.697Z,23.22
2023-05-09T21:24:52.717Z,23.29
2023-05-09T21:27:19.540Z,23.28
2023-05-09T21:29:49.264Z,23.28
2023-05-09T21:32:16.950Z,23.28
2023-05-09T21:34:43.502Z,23.28
2023-05-09T21:37:10.153Z,23.28
2023-05-09T21:39:36.661Z,23.24
2023-05-09T21:42:03.345Z,23.28
2023-05-09T21:44:29.937Z,23.29
2023-05-09T21:46:56.717Z,23.29
2023-05-09T21:49:27.185Z,23.23
2023-05-09T21:51:54.027Z,23.21
2023-05-09T21:54:20.947Z,23.29
2023-05-09T21:56:47.582Z,23.18
2023-05-09T21:59:14.197Z,23.31
2023-05-09T22:01:41.773Z,23.30
2023-05-09T22:06:34.953Z,23.27
2023-05-09T22:09:01.737Z,23.27
2023-05-09T22:11:28.246Z,23.20
2023-05-09T22:13:55.403Z,23.26
2023-05-09T22:16:22.425Z,23.26
2023-05-09T22:18:49.368Z,23.24
2023-05-09T22:21:16.084Z,23.16
2023-05-09T22:23:43.704Z,23.23
2023-05-09T22:26:10.354Z,23.21
2023-05-09T22:28:37.097Z,23.03
2023-05-09T22:31:06.677Z,23.20
2023-05-09T22:33:34.200Z,23.20
2023-05-09T22:36:01.159Z,23.18
2023-05-09T22:38:27.775Z,23.18
2023-05-09T22:40:54.283Z,23.17
2023-05-09T22:43:21.570Z,22.58
2023-05-09T22:45:48.146Z,23.06
2023-05-09T22:48:15.645Z,23.09
2023-05-09T22:50:42.261Z,23.03
2023-05-09T22:53:09.242Z,23.13
2023-05-09T22:55:36.480Z,23.12
2023-05-09T22:58:03.810Z,23.03
2023-05-09T23:00:30.578Z,23.10
2023-05-09T23:02:59.241Z,22.94
2023-05-09T23:05:25.983Z,23.05
2023-05-09T23:07:52.689Z,23.06
2023-05-09T23:10:19.323Z,22.97
2023-05-09T23:12:45.950Z,22.97
2023-05-09T23:15:12.592Z,23.01
2023-05-09T23:17:39.137Z,23.04
2023-05-09T23:20:06.337Z,23.03
2023-05-09T23:22:34.598Z,22.96
2023-05-09T23:25:01.174Z,22.65
2023-05-09T23:27:28.390Z,23.01
2023-05-09T23:29:55.258Z,22.80
2023-05-09T23:32:21.986Z,22.96
2023-05-09T23:34:48.621Z,22.97
2023-05-09T23:37:15.262Z,22.95
2023-05-09T23:39:41.808Z,22.96
2023-05-09T23:42:08.503Z,22.95
2023-05-09T23:44:35.281Z,22.95
2023-05-09T23:47:02.475Z,22.92
2023-05-09T23:49:29.205Z,22.93
2023-05-09T23:51:55.906Z,22.84
2023-05-09T23:54:24.271Z,22.92
2023-05-09T23:56:50.929Z,22.87
2023-05-09T23:59:17.619Z,22.76
